SCARSLLP

Guest
Details From SCAR - Chacalluta
To SLLP - La Paz
Flight Number -
Tags Decoded
Created
Modified
Stats Distance 166 nm / 307 km
Max Altitude 0 ft / 0 m
Waypoints 4
Social Downloads 2
Likes 0
Share VATSIM

Download

Looking for another format? Having issues loading an existing format? Contact us
Advertisement - Login to hide

Notes

Decoded

Route

SCAR LOLES VAGUR SLLP

ID Type Via Altitude Latitude Longitude Leg Dist Tot Dist Heading (true) Name
O SCAR APT - 0 ft / 0 m -18.35783˚ -70.34215˚ - 0 nm - -
LOLES FIX - 0 ft / 0 m -17.90000˚ -69.78333˚ 42 nm 42 nm 49° / 49° -
VAGUR FIX - 0 ft / 0 m -17.58944˚ -69.44167˚ 27 nm 69 nm 46° / 46° -
O SLLP APT - 0 ft / 0 m -16.50414˚ -68.19836˚ 96 nm 165 nm 48° / 47° -

Altitude Profile

Advertisement - Login to hide

Weather


0- 5 10 15 20 25 30 35+ Temperature / ° C

Clouds and Precipitation
Forecast for 2017-12-17 12:00 UTC. Updated an hour ago

Ground ~20,000 ft ~40,000 ft Winds

SCAR

Details ICAO SCAR (ARI)
Name CHACALLUTA
Region Chile
Timezone America/Santiago (UTC-3.0)
Stats Elevation 167 ft / 51 m (AMSL)
Location -18.348530° -70.338741°
Runways 1
Magnetic Variation 5.490° W

METAR

SCAR 171200Z 17003KT 9999 OVC030 20/13 Q1013

Decode

TAF

TAF SCAR 171030Z 1712/1812 18004KT 9999 BKN040 TX22/1718Z TN18/1806Z BECMG 1715/1717 22012KT CAVOK BECMG 1800/1802 18004KT BECMG 1805/1807 07004KT

Decode

Departure Runways

ID Width Length Bearing (true) Bearing (mag) Surface Threshold Offset Overrun Length
02 148 ft / 45 m 7,184 ft / 2,190 m 19.17° 24.66° Asphalt 0 ft / 0 m 2,075 ft / 632 m
20 148 ft / 45 m 7,184 ft / 2,190 m 199.17° 204.66° Asphalt 0 ft / 0 m 197 ft / 60 m

SLLP

Details ICAO SLLP (LPB)
Name La Paz
Region Bolivia
Timezone America/La_Paz (UTC-4.0)
Stats Elevation 13,313 ft / 4,058 m (AMSL)
Location -16.509356° -68.190551°
Runways 2
Magnetic Variation 7.918° W

METAR

SLLP 171200Z VRB02KT 9999 FEW008 BKN200 10/03 Q1037

Decode

TAF

TAF SLLP 171000Z 1712/1812 07006KT 9999 FEW017 TX18/1720Z TN03/1810Z BECMG 1715/1717 14012KT FEW020 FEW023CB BECMG 1723/1801 07004KT SCT015 TEMPO 1807/1811 3000E VCFG FEW002 SCT012

Decode

Destination Runways

ID Width Length Bearing (true) Bearing (mag) Surface Threshold Offset Overrun Length
10 151 ft / 46 m 13,106 ft / 3,995 m 91.90° 99.82° Concrete 0 ft / 0 m 200 ft / 61 m
10L 300 ft / 91 m 6,718 ft / 2,048 m 97.72° 105.64° Dirt 0 ft / 0 m 0 ft / 0 m
28 151 ft / 46 m 13,106 ft / 3,995 m 271.89° 279.81° Concrete 0 ft / 0 m 0 ft / 0 m
28R 300 ft / 91 m 6,718 ft / 2,048 m 277.71° 285.63° Dirt 0 ft / 0 m 0 ft / 0 m

Approach Navaids

Runway Type Ident Frequency Range Bearing (true) Bearing (mag) Slope Elevation
10 Localiser ILPA 110.30 MHz 18 nm / 33 km 91.89° 99.81° - 13,313 ft / 4,058 m (AMSL)
10 Glidescope ILPA 110.30 MHz 10 nm / 19 km 91.89° 99.81° 2.40° 13,313 ft / 4,058 m (AMSL)

Popular Alternatives